East Jordan, MI (49727)

5:34 PM EDT on September 18, 2014 (GMT -0400)
2.1 MI NNW of East Jordan(South Field) | Change Station
CLOSE
Current Station
Personal Weather Station
Location: East Jordan, MI
Elevation: 647 ft
Nearby Weather Stations

Elev 647 ft 45.19 °N, 85.15 °W | Updated 14 seconds ago

Clear
Clear
59.4 °F
Feels Like 59.4 °F
N
2.0
Wind Variable Wind from WSW
Gusts 5.0 mph

Today
High -- | Low -- °F
--% Chance of Precip.
Yesterday
High -- | Low -- °F
Precip. -- in
7:22 AM 7:45 PM
Waning Crescent, 24% visible
Pressure 30.20 in
Visibility 10.0 miles
Clouds Clear
Dew Point 43 °F
Humidity 54%
Rainfall 0.00 in
Snow Depth Not available.
UV 2 out of 12
Pollen 3.50 out of 12
Ozone Good
PM2.5 Good
Flu Activity Not available.
METAR KCVX 182114Z AUTO 02007G14KT 360V060 10SM CLR 14/07 A3020 RMK AO2 T01390066

More Conditions Fewer Conditions

Pressure 30.20 in
Visibility 10.0 miles
Clouds Clear
Dew Point 43 °F
Humidity 54%
Rainfall 0.00 in
Snow Depth Not available.
UV 2 out of 12
Pollen 3.50 out of 12
Ozone Good
PM2.5 Good
Flu Activity Not available.
METAR KCVX 182114Z AUTO 02007G14KT 360V060 10SM CLR 14/07 A3020 RMK AO2 T01390066

More Conditions Fewer Conditions

Nowcast | as of 5:00 PM EDT on September 18, 2014

At 6 PM...clear. Temperature 54. East winds 8 mph. At 8 PM...clear. Temperature 52. East winds 9 mph. At 10 PM...mostly clear. Temperature 49. East winds 8 mph. At 12 am...mostly clear. Temperature 48. Southeast winds 9 mph.

×

10-Day Weather Forecast

Almanac

Astronomy

Sep. 18, 2014 Rise Set
Actual Time 7:22 AM EDT 7:45 PM EDT
Civil Twilight 6:53 AM EDT 8:15 PM EDT
Nautical Twilight 6:18 AM EDT 8:49 PM EDT
Astronomical Twilight 5:42 AM EDT 9:25 PM EDT
Moon 2:03 AM EDT 4:46 PM EDT
Length of Visible Light 13h 21m
Length of Day
12h 22m
Tomorrow will be 3m 8s shorter.
Waning Crescent, 24% of the Moon is Illuminated
Today
Waning Crescent
Sep 24
New
Oct 1
First Quarter
Oct 8
Full
Oct 15
Last Quarter

Today's Extremes

State Highs State Lows

Community

WunderPhotos

Upload Photos

1,754,452 photos uploaded!

WunderBlogs® & News

Nearby

Air Quality

  Air Quality AQ Index Pollutant
Yesterday Good
OZONE
Yesterday Good
PM2.5
Current Good
OZONE
Current Good
PM2.5
Thursday Good
OZONE
Thursday Good
PM2.5
Friday Good
OZONE
Friday Good
PM2.5
Saturday Good
OZONE
Saturday Good
PM2.5
Sunday Good
OZONE
Sunday Good
PM2.5
Monday Good
OZONE
Monday Good
PM2.5

Snow Depth

Station Depth Elevation
No new snow has been reported.

Earthquake Activity

City Distance Mag. Time & Date
No recent earthquake activity has been reported nearby.
Minimum magnitude displayed is 2.5.

Coastal Water Temperatures

Place Temperature
Mackinaw City, MI 61.0 °F
Port Inland, MI 60.1 °F

Nearby Weather Stations